Eveleth, MN

7:31 AM CDT on July 07, 2015 (GMT -0500)
UTAC Thunderbird Mine | | Change Station
CLOSE
Current Station
Personal Weather Station
Location: Eveleth, MN
Elevation: 1621 ft
Nearby Weather Stations

Elev 1621 ft 47.48 °N, 92.54 °W | Updated 12 minutes ago

Clear
Clear
50.9 °F
Feels Like 50.9 °F
N
4.0
Wind Variable Wind from North
Gusts 9.0 mph

Today
High -- | Low -- °F
--% Chance of Precip.
Yesterday
High -- | Low -- °F
Precip. -- in
5:21 AM 9:08 PM
Waning Gibbous, 65% visible
Pressure 30.16 in
Visibility 10.0 miles
Clouds Clear
Dew Point 45 °F
Humidity 81%
Rainfall 0.00 in
Snow Depth Not available.
UV 1 out of 12
Pollen 4.30 out of 12
Air Quality Not available.
Flu Activity Not available.
METAR KHIB 071153Z AUTO 00000KT 10SM CLR 09/07 A3014 RMK AO2 SLP213 70007 T00890067 10122 20039 51014

More Conditions Fewer Conditions

Pressure 30.16 in
Visibility 10.0 miles
Clouds Clear
Dew Point 45 °F
Humidity 81%
Rainfall 0.00 in
Snow Depth Not available.
UV 1 out of 12
Pollen 4.30 out of 12
Air Quality Not available.
Flu Activity Not available.
METAR KHIB 071153Z AUTO 00000KT 10SM CLR 09/07 A3014 RMK AO2 SLP213 70007 T00890067 10122 20039 51014

More Conditions Fewer Conditions

10-Day Weather Forecast

×

Almanac

Astronomy

Jul. 07, 2015 Rise Set
Actual Time
Civil Twilight
Nautical Twilight
Astronomical Twilight
Moon
Length of Visible Light
Length of Day
Tomorrow will be .
, % of the Moon is Illuminated

Today's Extremes

State Highs State Lows

Community

WunderPhotos

Upload Photos

1,835,788 photos uploaded!

WunderBlogs® & News

Nearby

Air Quality

  Air Quality AQ Index Pollutant
Not available.

Snow Depth

Station Depth Elevation

Earthquake Activity

City Distance Mag. Time & Date
Minimum magnitude displayed is 2.5.

Coastal Water Temperatures

Place Temperature

Stations

Nearby Weather Stations

Station Location Temp. Windchill Dew Point Humidity Wind Precip. Elev Updated Type